Weather History for KBYY - February, 2012

Change the Weather History Date:

Tuesday, February 14, 2012

  Actual Average Record
Temperature  
Mean Temperature 64 °F -  
Max Temperature 74 °F - - ()
Min Temperature 55 °F - - ()
Growing Degree Days 14 (Base 50)    
Moisture  
Dew Point 59 °F    
Average Humidity 88    
Maximum Humidity 100    
Minimum Humidity 70    
Precipitation  
Precipitation 0.00 in - - ()
Sea Level Pressure  
Sea Level Pressure 29.94 in    
Wind  
Wind Speed 4 mph (SE)    
Max Wind Speed 16 mph    
Max Gust Speed 17 mph    
Visibility 10 miles    
Events      
T = Trace of Precipitation, MM = Missing Value Source: NWS Daily Summary

Daily Weather History Graph

Daily Weather History Graph

Search for Another Location

Airport or City:

Trip Planner

Search our weather history database for the weather conditions in past years. The results will help you decide how hot, cold, wet, or windy it might be!

Date:

Astronomy

Feb. 14, 2012 Rise Set
Actual Time 7:03 AM CST 6:12 PM CST
Civil Twilight 6:39 AM CST 6:36 PM CST
Nautical Twilight 6:11 AM CST 7:04 PM CST
Astronomical Twilight 5:43 AM CST 7:32 PM CST
Moon 12:39 AM CST (2/14) 11:30 AM CST (2/14)
Length of Visible Light 11h 57m
Length of Day
11h 08m
Waning Gibbous, 50% of the Moon is Illuminated
Feb 14
Waning Gibbous
Feb 21
New
Feb 29
First Quarter
Mar 8
Full
Mar 14
Last Quarter

Hourly Weather History & Observations

Time (CST) Temp. Dew Point Humidity Pressure Visibility Wind Dir Wind Speed Gust Speed Precip Events Conditions
12:15 AM 56.5 °F 56.5 °F 100% 29.93 in 5.0 mi Calm Calm - N/A   Overcast
12:35 AM 56.5 °F 56.5 °F 100% 29.93 in 5.0 mi Calm Calm - N/A   Overcast
12:55 AM 56.7 °F 56.7 °F 100% 29.94 in 7.0 mi Calm Calm - N/A   Overcast
1:15 AM 57.2 °F 57.2 °F 100% 29.94 in 7.0 mi Calm Calm - N/A   Overcast
1:35 AM 57.7 °F 57.7 °F 100% 29.94 in 7.0 mi Calm Calm - N/A   Overcast
1:55 AM 58.1 °F 58.1 °F 100% 29.94 in 10.0 mi SSE 4.6 mph - N/A   Overcast
2:15 AM 58.3 °F 57.7 °F 98% 29.94 in 10.0 mi Calm Calm - N/A   Overcast
2:35 AM 58.3 °F 57.4 °F 97% 29.93 in 10.0 mi Calm Calm - N/A   Overcast
2:55 AM 57.2 °F 55.4 °F 94% 29.93 in 10.0 mi SSE 3.5 mph - N/A   Overcast
3:15 AM 58.1 °F 57.0 °F 96% 29.93 in 10.0 mi SE 3.5 mph - N/A   Overcast
3:35 AM 57.7 °F 56.7 °F 96% 29.93 in 10.0 mi Calm Calm - N/A   Overcast
3:55 AM 57.6 °F 56.7 °F 97% 29.93 in 10.0 mi SE 3.5 mph - N/A   Overcast
4:15 AM 57.2 °F 56.3 °F 97% 29.94 in 10.0 mi South 3.5 mph - N/A   Overcast
4:35 AM 57.2 °F 56.3 °F 97% 29.94 in 10.0 mi South 5.8 mph - N/A   Overcast
4:55 AM 57.2 °F 56.1 °F 96% 29.94 in 10.0 mi SSW 5.8 mph - N/A   Overcast
5:15 AM 57.2 °F 55.9 °F 96% 29.95 in 10.0 mi South 3.5 mph - N/A   Overcast
5:35 AM 56.8 °F 55.9 °F 97% 29.94 in 10.0 mi Calm Calm - N/A   Overcast
5:55 AM 56.5 °F 55.6 °F 97% 29.95 in 10.0 mi Calm Calm - N/A   Overcast
6:15 AM 56.3 °F 55.6 °F 97% 29.95 in 10.0 mi SE 4.6 mph - N/A   Overcast
6:35 AM 56.5 °F 55.6 °F 97% 29.96 in 10.0 mi SE 4.6 mph - N/A   Overcast
6:55 AM 56.7 °F 55.6 °F 96% 29.97 in 10.0 mi SE 5.8 mph - N/A   Overcast
7:15 AM 56.5 °F 55.4 °F 96% 29.96 in 10.0 mi East 5.8 mph - N/A   Mostly Cloudy
7:35 AM 55.4 °F 53.6 °F 94% 29.97 in 10.0 mi East 4.6 mph - N/A   Scattered Clouds
7:55 AM 55.8 °F 55.0 °F 97% 29.98 in 10.0 mi Calm Calm - N/A   Clear
8:15 AM 56.5 °F 55.8 °F 97% 29.98 in 10.0 mi SE 4.6 mph - N/A   Clear
8:35 AM 57.2 °F 55.4 °F 94% 29.98 in 10.0 mi ESE 4.6 mph - N/A   Clear
8:55 AM 58.5 °F 56.8 °F 94% 30.00 in 10.0 mi SE 4.6 mph - N/A   Clear
9:15 AM 59.9 °F 57.7 °F 93% 30.00 in 10.0 mi SSE 6.9 mph - N/A   Clear
9:35 AM 61.7 °F 59.0 °F 91% 29.99 in 10.0 mi SE 4.6 mph - N/A   Clear
9:55 AM 63.1 °F 59.5 °F 88% 29.99 in 10.0 mi East 4.6 mph - N/A   Clear
10:15 AM 65.1 °F 60.3 °F 84% 29.99 in 10.0 mi East 5.8 mph - N/A   Clear
10:35 AM 66.4 °F 60.4 °F 81% 29.98 in 10.0 mi ESE 5.8 mph - N/A   Clear
10:55 AM 67.6 °F 61.0 °F 79% 29.98 in 10.0 mi ESE 5.8 mph - N/A   Clear
11:15 AM 68.9 °F 61.0 °F 76% 29.98 in 10.0 mi SE 3.5 mph - N/A   Scattered Clouds
11:35 AM 70.0 °F 60.8 °F 73% 29.98 in 10.0 mi SSE 4.6 mph - N/A   Scattered Clouds
11:55 AM 71.1 °F 61.7 °F 72% 29.97 in 10.0 mi SSE 5.8 mph - N/A   Scattered Clouds
12:15 PM 71.8 °F 63.0 °F 74% 29.96 in 10.0 mi SSE 4.6 mph - N/A   Mostly Cloudy
12:35 PM 72.7 °F 63.3 °F 72% 29.95 in 10.0 mi South 6.9 mph - N/A   Mostly Cloudy
12:55 PM 72.7 °F 63.9 °F 74% 29.94 in 10.0 mi South 5.8 mph - N/A   Overcast
1:15 PM 72.7 °F 63.9 °F 74% 29.93 in 10.0 mi South 5.8 mph - N/A   Overcast
1:35 PM 72.9 °F 63.7 °F 73% 29.93 in 10.0 mi SSW 5.8 mph - N/A   Overcast
1:55 PM 73.2 °F 63.9 °F 72% 29.92 in 10.0 mi SSE 3.5 mph - N/A   Mostly Cloudy
2:15 PM 73.8 °F 63.9 °F 71% 29.91 in 10.0 mi South 8.1 mph - N/A   Mostly Cloudy
2:35 PM 73.9 °F 63.9 °F 71% 29.90 in 10.0 mi South 8.1 mph - N/A   Mostly Cloudy
2:55 PM 74.7 °F 64.2 °F 70% 29.90 in 10.0 mi South 6.9 mph - N/A   Mostly Cloudy
3:15 PM 74.3 °F 64.2 °F 71% 29.90 in 10.0 mi South 6.9 mph - N/A   Mostly Cloudy
3:35 PM 74.1 °F 64.4 °F 72% 29.90 in 10.0 mi SE 6.9 mph - N/A   Overcast
3:55 PM 73.4 °F 64.9 °F 75% 29.90 in 10.0 mi SE 11.5 mph - N/A   Mostly Cloudy
4:15 PM 71.1 °F 64.2 °F 79% 29.90 in 10.0 mi ESE 15.0 mph - N/A   Mostly Cloudy
4:35 PM 69.1 °F 63.1 °F 81% 29.90 in 10.0 mi ESE 12.7 mph - N/A   Overcast
4:55 PM 68.0 °F 62.6 °F 83% 29.91 in 10.0 mi East 16.1 mph - N/A   Overcast
5:15 PM 66.7 °F 62.1 °F 85% 29.91 in 10.0 mi East 12.7 mph - N/A   Mostly Cloudy
5:35 PM 66.0 °F 62.1 °F 87% 29.92 in 10.0 mi ESE 11.5 mph - N/A   Mostly Cloudy
5:55 PM 65.1 °F 61.7 °F 89% 29.92 in 10.0 mi ESE 15.0 mph - N/A   Mostly Cloudy
6:15 PM 64.6 °F 62.8 °F 94% 29.92 in 10.0 mi East 12.7 mph 17.3 mph N/A   Mostly Cloudy
6:35 PM 64.6 °F 63.3 °F 96% 29.92 in 10.0 mi East 12.7 mph 18.4 mph N/A   Overcast
6:55 PM 64.4 °F 63.5 °F 97% 29.92 in 7.0 mi East 12.7 mph - N/A   Overcast
7:15 PM 64.2 °F 63.3 °F 97% 29.92 in 7.0 mi East 11.5 mph 18.4 mph N/A   Overcast
7:35 PM 63.9 °F 63.1 °F 97% 29.92 in 7.0 mi East 16.1 mph - N/A   Overcast
7:55 PM 63.7 °F 63.0 °F 97% 29.93 in 7.0 mi East 12.7 mph - N/A   Overcast
8:15 PM 63.9 °F 63.1 °F 97% 29.92 in 7.0 mi East 16.1 mph - N/A   Overcast
8:35 PM 64.0 °F 63.3 °F 97% 29.93 in 7.0 mi East 10.4 mph - N/A   Overcast
8:55 PM 64.4 °F 63.5 °F 97% 29.93 in 10.0 mi East 11.5 mph - N/A   Overcast
9:35 PM 64.6 °F 64.2 °F 99% 29.95 in 10.0 mi East 10.4 mph - N/A   Overcast
9:55 PM 64.9 °F 64.4 °F 98% 29.95 in 10.0 mi East 10.4 mph - N/A   Overcast
10:15 PM 65.3 °F 64.8 °F 98% 29.95 in 7.0 mi East 12.7 mph - N/A   Overcast
10:35 PM 65.7 °F 65.3 °F 99% 29.95 in 10.0 mi East 11.5 mph - N/A   Overcast
10:55 PM 65.8 °F 65.5 °F 99% 29.95 in 7.0 mi East 10.4 mph - N/A   Overcast
11:15 PM 66.2 °F 66.0 °F 99% 29.94 in 7.0 mi East 10.4 mph - N/A   Overcast
11:35 PM 66.7 °F 66.4 °F 99% 29.95 in 7.0 mi ESE 9.2 mph 16.1 mph N/A   Overcast
11:55 PM 67.3 °F 66.9 °F 99% 29.94 in 7.0 mi ESE 12.7 mph - N/A   Overcast